sensor_id;sensor_type;location;lat;lon;timestamp;temperature;humidity
21085;DHT22;34247;50.064;19.970;2022-08-25T00:00:42;34.50;39.60
21085;DHT22;34247;50.064;19.970;2022-08-25T00:01:57;34.50;39.60
21085;DHT22;34247;50.064;19.970;2022-08-25T00:03:19;34.50;39.60
21085;DHT22;34247;50.064;19.970;2022-08-25T00:04:28;34.50;39.60
21085;DHT22;34247;50.064;19.970;2022-08-25T00:05:40;34.50;39.70
21085;DHT22;34247;50.064;19.970;2022-08-25T00:06:49;34.50;39.60
21085;DHT22;34247;50.064;19.970;2022-08-25T00:08:04;34.50;39.60
21085;DHT22;34247;50.064;19.970;2022-08-25T00:09:16;34.50;39.70
21085;DHT22;34247;50.064;19.970;2022-08-25T00:10:31;34.50;39.70
21085;DHT22;34247;50.064;19.970;2022-08-25T00:11:44;34.50;39.70
21085;DHT22;34247;50.064;19.970;2022-08-25T00:12:55;34.50;39.70
21085;DHT22;34247;50.064;19.970;2022-08-25T00:14:11;34.50;39.60
21085;DHT22;34247;50.064;19.970;2022-08-25T00:15:22;34.50;39.60
21085;DHT22;34247;50.064;19.970;2022-08-25T00:16:30;34.50;39.50
21085;DHT22;34247;50.064;19.970;2022-08-25T00:17:40;34.50;39.50
21085;DHT22;34247;50.064;19.970;2022-08-25T00:18:51;34.50;39.40
21085;DHT22;34247;50.064;19.970;2022-08-25T00:20:05;34.50;39.40
21085;DHT22;34247;50.064;19.970;2022-08-25T00:21:21;34.50;39.40
21085;DHT22;34247;50.064;19.970;2022-08-25T00:22:31;34.40;39.30
21085;DHT22;34247;50.064;19.970;2022-08-25T00:23:44;34.40;39.30
21085;DHT22;34247;50.064;19.970;2022-08-25T00:24:58;34.40;39.40
21085;DHT22;34247;50.064;19.970;2022-08-25T00:26:11;34.40;39.30
21085;DHT22;34247;50.064;19.970;2022-08-25T00:27:25;34.40;39.40
21085;DHT22;34247;50.064;19.970;2022-08-25T00:28:40;34.40;39.50
21085;DHT22;34247;50.064;19.970;2022-08-25T00:29:50;34.40;39.40
21085;DHT22;34247;50.064;19.970;2022-08-25T00:31:01;34.40;39.50
21085;DHT22;34247;50.064;19.970;2022-08-25T00:32:12;34.40;39.40
21085;DHT22;34247;50.064;19.970;2022-08-25T00:33:22;34.40;39.50
21085;DHT22;34247;50.064;19.970;2022-08-25T00:34:40;34.40;39.40
21085;DHT22;34247;50.064;19.970;2022-08-25T00:35:52;34.40;39.40
21085;DHT22;34247;50.064;19.970;2022-08-25T00:37:07;34.30;39.40
21085;DHT22;34247;50.064;19.970;2022-08-25T00:38:23;34.30;39.40
21085;DHT22;34247;50.064;19.970;2022-08-25T00:39:46;34.30;39.40
21085;DHT22;34247;50.064;19.970;2022-08-25T00:40:56;34.30;39.40
21085;DHT22;34247;50.064;19.970;2022-08-25T00:42:12;34.30;39.40
21085;DHT22;34247;50.064;19.970;2022-08-25T00:43:27;34.30;39.40
21085;DHT22;34247;50.064;19.970;2022-08-25T00:44:49;34.30;39.40
21085;DHT22;34247;50.064;19.970;2022-08-25T00:45:59;34.30;39.40
21085;DHT22;34247;50.064;19.970;2022-08-25T00:47:11;34.30;39.40
21085;DHT22;34247;50.064;19.970;2022-08-25T00:48:23;34.30;39.30
21085;DHT22;34247;50.064;19.970;2022-08-25T00:49:55;34.30;39.30
21085;DHT22;34247;50.064;19.970;2022-08-25T00:51:19;34.30;39.30
21085;DHT22;34247;50.064;19.970;2022-08-25T00:52:46;34.30;39.30
21085;DHT22;34247;50.064;19.970;2022-08-25T00:53:57;34.30;39.40
21085;DHT22;34247;50.064;19.970;2022-08-25T00:55:37;34.30;39.30
21085;DHT22;34247;50.064;19.970;2022-08-25T00:56:48;34.30;39.30
21085;DHT22;34247;50.064;19.970;2022-08-25T00:58:17;34.30;39.30
21085;DHT22;34247;50.064;19.970;2022-08-25T00:59:35;34.30;39.20
21085;DHT22;34247;50.064;19.970;2022-08-25T01:00:48;34.30;39.30
21085;DHT22;34247;50.064;19.970;2022-08-25T01:02:04;34.30;39.20
21085;DHT22;34247;50.064;19.970;2022-08-25T01:03:27;34.30;39.20
21085;DHT22;34247;50.064;19.970;2022-08-25T01:04:42;34.30;39.20
21085;DHT22;34247;50.064;19.970;2022-08-25T01:05:56;34.30;39.20
21085;DHT22;34247;50.064;19.970;2022-08-25T01:07:08;34.30;39.10
21085;DHT22;34247;50.064;19.970;2022-08-25T01:08:28;34.30;39.20
21085;DHT22;34247;50.064;19.970;2022-08-25T01:09:46;34.30;39.10
21085;DHT22;34247;50.064;19.970;2022-08-25T01:11:05;34.20;39.10
21085;DHT22;34247;50.064;19.970;2022-08-25T01:12:22;34.20;39.10
21085;DHT22;34247;50.064;19.970;2022-08-25T01:13:44;34.20;39.10
21085;DHT22;34247;50.064;19.970;2022-08-25T01:15:00;34.20;39.20
21085;DHT22;34247;50.064;19.970;2022-08-25T01:16:23;34.20;39.10
21085;DHT22;34247;50.064;19.970;2022-08-25T01:17:53;34.20;39.20
21085;DHT22;34247;50.064;19.970;2022-08-25T01:19:21;34.20;39.20
21085;DHT22;34247;50.064;19.970;2022-08-25T01:20:40;34.10;39.10
21085;DHT22;34247;50.064;19.970;2022-08-25T01:21:54;34.10;39.10
21085;DHT22;34247;50.064;19.970;2022-08-25T01:23:05;34.10;39.20
21085;DHT22;34247;50.064;19.970;2022-08-25T01:24:51;34.10;39.10
21085;DHT22;34247;50.064;19.970;2022-08-25T01:26:17;34.10;39.30
21085;DHT22;34247;50.064;19.970;2022-08-25T01:27:37;34.10;39.40
21085;DHT22;34247;50.064;19.970;2022-08-25T01:28:50;34.10;39.40
21085;DHT22;34247;50.064;19.970;2022-08-25T01:30:21;34.10;39.40
21085;DHT22;34247;50.064;19.970;2022-08-25T01:31:33;34.10;39.40
21085;DHT22;34247;50.064;19.970;2022-08-25T01:32:47;34.10;39.30
21085;DHT22;34247;50.064;19.970;2022-08-25T01:34:04;34.10;39.20
21085;DHT22;34247;50.064;19.970;2022-08-25T01:35:16;34.10;39.30
21085;DHT22;34247;50.064;19.970;2022-08-25T01:36:38;34.10;39.30
21085;DHT22;34247;50.064;19.970;2022-08-25T01:37:54;34.00;39.20
21085;DHT22;34247;50.064;19.970;2022-08-25T01:39:12;34.00;39.20
21085;DHT22;34247;50.064;19.970;2022-08-25T01:43:35;34.10;39.30
21085;DHT22;34247;50.064;19.970;2022-08-25T01:45:01;34.00;39.20
21085;DHT22;34247;50.064;19.970;2022-08-25T01:46:13;34.00;39.30
21085;DHT22;34247;50.064;19.970;2022-08-25T01:47:30;34.00;39.20
21085;DHT22;34247;50.064;19.970;2022-08-25T01:48:49;34.00;39.20
21085;DHT22;34247;50.064;19.970;2022-08-25T01:50:04;34.00;39.20
21085;DHT22;34247;50.064;19.970;2022-08-25T01:51:19;34.00;39.20
21085;DHT22;34247;50.064;19.970;2022-08-25T01:53:02;34.00;39.20
21085;DHT22;34247;50.064;19.970;2022-08-25T01:54:16;34.00;39.20
21085;DHT22;34247;50.064;19.970;2022-08-25T01:55:27;34.00;39.20
21085;DHT22;34247;50.064;19.970;2022-08-25T01:56:39;34.00;39.20
21085;DHT22;34247;50.064;19.970;2022-08-25T01:57:52;34.00;39.20
21085;DHT22;34247;50.064;19.970;2022-08-25T01:59:06;34.00;39.30
21085;DHT22;34247;50.064;19.970;2022-08-25T02:00:21;34.00;39.30
21085;DHT22;34247;50.064;19.970;2022-08-25T02:01:41;34.00;39.20
21085;DHT22;34247;50.064;19.970;2022-08-25T02:02:53;34.00;39.20
21085;DHT22;34247;50.064;19.970;2022-08-25T02:04:04;34.00;39.30
21085;DHT22;34247;50.064;19.970;2022-08-25T02:05:15;34.00;39.20
21085;DHT22;34247;50.064;19.970;2022-08-25T02:06:32;34.00;39.30
21085;DHT22;34247;50.064;19.970;2022-08-25T02:07:45;34.00;39.20
21085;DHT22;34247;50.064;19.970;2022-08-25T02:09:04;34.00;39.10
21085;DHT22;34247;50.064;19.970;2022-08-25T02:10:16;34.00;39.20
21085;DHT22;34247;50.064;19.970;2022-08-25T02:11:25;34.00;39.20
21085;DHT22;34247;50.064;19.970;2022-08-25T02:12:38;33.90;39.10
21085;DHT22;34247;50.064;19.970;2022-08-25T02:13:51;34.00;39.30
21085;DHT22;34247;50.064;19.970;2022-08-25T02:15:02;34.00;39.20
21085;DHT22;34247;50.064;19.970;2022-08-25T02:16:25;33.90;39.20
21085;DHT22;34247;50.064;19.970;2022-08-25T02:17:41;33.90;39.20
21085;DHT22;34247;50.064;19.970;2022-08-25T02:18:56;33.90;39.30
21085;DHT22;34247;50.064;19.970;2022-08-25T02:20:07;33.90;39.20
21085;DHT22;34247;50.064;19.970;2022-08-25T02:21:17;33.90;39.50
21085;DHT22;34247;50.064;19.970;2022-08-25T02:22:27;33.90;39.30
21085;DHT22;34247;50.064;19.970;2022-08-25T02:23:37;33.90;39.30
21085;DHT22;34247;50.064;19.970;2022-08-25T02:24:52;33.90;39.30
21085;DHT22;34247;50.064;19.970;2022-08-25T02:26:04;33.90;39.30
21085;DHT22;34247;50.064;19.970;2022-08-25T02:27:20;33.90;39.30
21085;DHT22;34247;50.064;19.970;2022-08-25T02:28:29;33.90;39.20
21085;DHT22;34247;50.064;19.970;2022-08-25T02:29:39;33.90;39.30
21085;DHT22;34247;50.064;19.970;2022-08-25T02:30:47;33.90;39.30
21085;DHT22;34247;50.064;19.970;2022-08-25T02:32:06;33.90;39.20
21085;DHT22;34247;50.064;19.970;2022-08-25T02:33:15;33.90;39.20
21085;DHT22;34247;50.064;19.970;2022-08-25T02:34:27;33.90;39.20
21085;DHT22;34247;50.064;19.970;2022-08-25T02:35:40;33.90;39.30
21085;DHT22;34247;50.064;19.970;2022-08-25T02:36:50;33.90;39.30
21085;DHT22;34247;50.064;19.970;2022-08-25T02:38:10;33.90;39.30
21085;DHT22;34247;50.064;19.970;2022-08-25T02:39:23;33.90;39.30
21085;DHT22;34247;50.064;19.970;2022-08-25T02:40:33;33.90;39.30
21085;DHT22;34247;50.064;19.970;2022-08-25T02:41:46;33.90;39.30
21085;DHT22;34247;50.064;19.970;2022-08-25T02:42:58;33.90;39.30
21085;DHT22;34247;50.064;19.970;2022-08-25T02:44:09;33.90;39.30
21085;DHT22;34247;50.064;19.970;2022-08-25T02:45:19;33.80;39.30
21085;DHT22;34247;50.064;19.970;2022-08-25T02:46:29;33.80;39.20
21085;DHT22;34247;50.064;19.970;2022-08-25T02:47:38;33.80;39.20
21085;DHT22;34247;50.064;19.970;2022-08-25T02:48:47;33.80;39.30
21085;DHT22;34247;50.064;19.970;2022-08-25T02:49:57;33.90;39.40
21085;DHT22;34247;50.064;19.970;2022-08-25T02:51:12;33.80;39.50
21085;DHT22;34247;50.064;19.970;2022-08-25T02:52:27;33.80;39.50
21085;DHT22;34247;50.064;19.970;2022-08-25T02:53:39;33.90;39.60
21085;DHT22;34247;50.064;19.970;2022-08-25T02:54:51;33.80;39.40
21085;DHT22;34247;50.064;19.970;2022-08-25T02:56:00;33.80;39.40
21085;DHT22;34247;50.064;19.970;2022-08-25T02:57:15;33.80;39.50
21085;DHT22;34247;50.064;19.970;2022-08-25T02:58:28;33.80;39.50
21085;DHT22;34247;50.064;19.970;2022-08-25T02:59:43;33.80;39.50
21085;DHT22;34247;50.064;19.970;2022-08-25T03:01:00;33.80;39.50
21085;DHT22;34247;50.064;19.970;2022-08-25T03:02:22;33.80;39.50
21085;DHT22;34247;50.064;19.970;2022-08-25T03:03:33;33.80;39.50
21085;DHT22;34247;50.064;19.970;2022-08-25T03:04:46;33.80;39.50
21085;DHT22;34247;50.064;19.970;2022-08-25T03:06:00;33.80;39.40
21085;DHT22;34247;50.064;19.970;2022-08-25T03:07:13;33.80;39.30
21085;DHT22;34247;50.064;19.970;2022-08-25T03:08:26;33.80;39.30
21085;DHT22;34247;50.064;19.970;2022-08-25T03:09:38;33.80;39.30
21085;DHT22;34247;50.064;19.970;2022-08-25T03:10:46;33.80;39.40
21085;DHT22;34247;50.064;19.970;2022-08-25T03:11:56;33.80;39.50
21085;DHT22;34247;50.064;19.970;2022-08-25T03:13:07;33.80;39.40
21085;DHT22;34247;50.064;19.970;2022-08-25T03:14:17;33.80;39.50
21085;DHT22;34247;50.064;19.970;2022-08-25T03:15:30;33.80;39.50
21085;DHT22;34247;50.064;19.970;2022-08-25T03:16:45;33.80;39.50
21085;DHT22;34247;50.064;19.970;2022-08-25T03:17:57;33.70;39.40
21085;DHT22;34247;50.064;19.970;2022-08-25T03:19:11;33.70;39.40
21085;DHT22;34247;50.064;19.970;2022-08-25T03:20:26;33.70;39.40
21085;DHT22;34247;50.064;19.970;2022-08-25T03:21:38;33.80;40.20
21085;DHT22;34247;50.064;19.970;2022-08-25T03:22:53;33.70;39.40
21085;DHT22;34247;50.064;19.970;2022-08-25T03:24:09;33.70;39.50
21085;DHT22;34247;50.064;19.970;2022-08-25T03:25:18;33.70;39.50
21085;DHT22;34247;50.064;19.970;2022-08-25T03:26:44;33.70;39.50
21085;DHT22;34247;50.064;19.970;2022-08-25T03:28:10;33.70;39.40
21085;DHT22;34247;50.064;19.970;2022-08-25T03:29:21;33.70;39.60
21085;DHT22;34247;50.064;19.970;2022-08-25T03:30:42;33.70;39.50
21085;DHT22;34247;50.064;19.970;2022-08-25T03:32:01;33.70;39.60
21085;DHT22;34247;50.064;19.970;2022-08-25T03:33:18;33.70;39.50
21085;DHT22;34247;50.064;19.970;2022-08-25T03:34:29;33.70;39.50
21085;DHT22;34247;50.064;19.970;2022-08-25T03:35:42;33.70;39.60
21085;DHT22;34247;50.064;19.970;2022-08-25T03:36:53;33.70;39.60
21085;DHT22;34247;50.064;19.970;2022-08-25T03:38:08;33.70;39.60
21085;DHT22;34247;50.064;19.970;2022-08-25T03:39:24;33.70;39.60
21085;DHT22;34247;50.064;19.970;2022-08-25T03:40:40;33.70;39.70
21085;DHT22;34247;50.064;19.970;2022-08-25T03:41:53;33.70;39.60
21085;DHT22;34247;50.064;19.970;2022-08-25T03:43:01;33.70;39.70
21085;DHT22;34247;50.064;19.970;2022-08-25T03:44:14;33.70;39.60
21085;DHT22;34247;50.064;19.970;2022-08-25T03:45:24;33.70;39.60
21085;DHT22;34247;50.064;19.970;2022-08-25T03:46:50;33.70;39.70
21085;DHT22;34247;50.064;19.970;2022-08-25T03:48:09;33.70;39.60
21085;DHT22;34247;50.064;19.970;2022-08-25T03:49:22;33.70;39.60
21085;DHT22;34247;50.064;19.970;2022-08-25T03:50:49;33.70;39.60
21085;DHT22;34247;50.064;19.970;2022-08-25T03:52:03;33.70;39.50
21085;DHT22;34247;50.064;19.970;2022-08-25T03:53:13;33.70;39.50
21085;DHT22;34247;50.064;19.970;2022-08-25T03:54:27;33.70;39.50
21085;DHT22;34247;50.064;19.970;2022-08-25T03:55:42;33.70;39.60
21085;DHT22;34247;50.064;19.970;2022-08-25T03:56:58;33.70;39.60
21085;DHT22;34247;50.064;19.970;2022-08-25T03:58:14;33.70;39.60
21085;DHT22;34247;50.064;19.970;2022-08-25T03:59:26;33.70;39.60
21085;DHT22;34247;50.064;19.970;2022-08-25T04:00:35;33.70;39.80
21085;DHT22;34247;50.064;19.970;2022-08-25T04:01:48;33.70;39.70
21085;DHT22;34247;50.064;19.970;2022-08-25T04:03:03;33.70;39.70
21085;DHT22;34247;50.064;19.970;2022-08-25T04:04:21;33.70;39.70
21085;DHT22;34247;50.064;19.970;2022-08-25T04:05:36;33.70;39.70
21085;DHT22;34247;50.064;19.970;2022-08-25T04:06:53;33.70;39.70
21085;DHT22;34247;50.064;19.970;2022-08-25T04:08:09;33.70;39.70
21085;DHT22;34247;50.064;19.970;2022-08-25T04:09:19;33.70;39.70
21085;DHT22;34247;50.064;19.970;2022-08-25T04:10:29;33.70;39.70
21085;DHT22;34247;50.064;19.970;2022-08-25T04:11:40;33.70;39.70
21085;DHT22;34247;50.064;19.970;2022-08-25T04:13:00;33.70;39.70
21085;DHT22;34247;50.064;19.970;2022-08-25T04:14:15;33.70;39.70
21085;DHT22;34247;50.064;19.970;2022-08-25T04:15:27;33.70;39.90
21085;DHT22;34247;50.064;19.970;2022-08-25T04:16:45;33.70;39.80
21085;DHT22;34247;50.064;19.970;2022-08-25T04:17:59;33.70;39.80
21085;DHT22;34247;50.064;19.970;2022-08-25T04:19:10;33.70;39.80
21085;DHT22;34247;50.064;19.970;2022-08-25T04:20:26;33.70;39.90
21085;DHT22;34247;50.064;19.970;2022-08-25T04:21:43;33.70;39.80
21085;DHT22;34247;50.064;19.970;2022-08-25T04:23:08;33.70;39.90
21085;DHT22;34247;50.064;19.970;2022-08-25T04:24:25;33.70;39.80
21085;DHT22;34247;50.064;19.970;2022-08-25T04:25:48;33.70;39.80
21085;DHT22;34247;50.064;19.970;2022-08-25T04:27:06;33.70;39.80
21085;DHT22;34247;50.064;19.970;2022-08-25T04:28:29;33.70;39.80
21085;DHT22;34247;50.064;19.970;2022-08-25T04:29:44;33.70;39.80
21085;DHT22;34247;50.064;19.970;2022-08-25T04:30:53;33.70;39.80
21085;DHT22;34247;50.064;19.970;2022-08-25T04:32:05;33.70;39.80
21085;DHT22;34247;50.064;19.970;2022-08-25T04:33:14;33.70;39.80
21085;DHT22;34247;50.064;19.970;2022-08-25T04:34:27;33.70;39.90
21085;DHT22;34247;50.064;19.970;2022-08-25T04:35:36;33.80;39.90
21085;DHT22;34247;50.064;19.970;2022-08-25T04:36:51;33.80;39.90
21085;DHT22;34247;50.064;19.970;2022-08-25T04:38:03;33.80;39.90
21085;DHT22;34247;50.064;19.970;2022-08-25T04:39:17;33.80;39.90
21085;DHT22;34247;50.064;19.970;2022-08-25T04:40:30;33.80;39.90
21085;DHT22;34247;50.064;19.970;2022-08-25T04:41:43;33.80;40.00
21085;DHT22;34247;50.064;19.970;2022-08-25T04:42:52;33.80;39.80
21085;DHT22;34247;50.064;19.970;2022-08-25T04:44:01;33.80;39.80
21085;DHT22;34247;50.064;19.970;2022-08-25T04:45:12;33.90;39.90
21085;DHT22;34247;50.064;19.970;2022-08-25T04:46:24;33.80;39.90
21085;DHT22;34247;50.064;19.970;2022-08-25T04:47:39;33.90;39.90
21085;DHT22;34247;50.064;19.970;2022-08-25T04:48:54;33.90;39.90
21085;DHT22;34247;50.064;19.970;2022-08-25T04:50:05;33.90;39.80
21085;DHT22;34247;50.064;19.970;2022-08-25T04:51:23;33.90;39.80
21085;DHT22;34247;50.064;19.970;2022-08-25T04:52:38;33.90;39.80
21085;DHT22;34247;50.064;19.970;2022-08-25T04:53:57;33.90;39.80
21085;DHT22;34247;50.064;19.970;2022-08-25T04:55:11;33.90;39.80
21085;DHT22;34247;50.064;19.970;2022-08-25T04:56:30;34.00;39.80
21085;DHT22;34247;50.064;19.970;2022-08-25T04:57:43;34.00;39.80
21085;DHT22;34247;50.064;19.970;2022-08-25T04:58:55;34.00;39.90
21085;DHT22;34247;50.064;19.970;2022-08-25T05:00:04;34.00;39.90
21085;DHT22;34247;50.064;19.970;2022-08-25T05:01:19;34.00;39.90
21085;DHT22;34247;50.064;19.970;2022-08-25T05:02:36;34.00;39.70
21085;DHT22;34247;50.064;19.970;2022-08-25T05:03:57;34.00;39.60
21085;DHT22;34247;50.064;19.970;2022-08-25T05:05:10;34.00;39.60
21085;DHT22;34247;50.064;19.970;2022-08-25T05:06:19;34.00;39.60
21085;DHT22;34247;50.064;19.970;2022-08-25T05:07:39;34.00;39.60
21085;DHT22;34247;50.064;19.970;2022-08-25T05:08:47;34.10;39.60
21085;DHT22;34247;50.064;19.970;2022-08-25T05:09:59;34.10;39.60
21085;DHT22;34247;50.064;19.970;2022-08-25T05:11:16;34.10;39.60
21085;DHT22;34247;50.064;19.970;2022-08-25T05:12:31;34.10;39.60
21085;DHT22;34247;50.064;19.970;2022-08-25T05:13:41;34.10;39.50
21085;DHT22;34247;50.064;19.970;2022-08-25T05:14:57;34.10;39.40
21085;DHT22;34247;50.064;19.970;2022-08-25T05:16:27;34.20;39.40
21085;DHT22;34247;50.064;19.970;2022-08-25T05:17:46;34.10;39.40
21085;DHT22;34247;50.064;19.970;2022-08-25T05:19:07;34.20;39.40
21085;DHT22;34247;50.064;19.970;2022-08-25T05:20:18;34.20;39.40
21085;DHT22;34247;50.064;19.970;2022-08-25T05:21:28;34.20;39.30
21085;DHT22;34247;50.064;19.970;2022-08-25T05:22:44;34.20;39.40
21085;DHT22;34247;50.064;19.970;2022-08-25T05:23:58;34.20;39.40
21085;DHT22;34247;50.064;19.970;2022-08-25T05:25:17;34.30;39.40
21085;DHT22;34247;50.064;19.970;2022-08-25T05:26:38;34.30;39.40
21085;DHT22;34247;50.064;19.970;2022-08-25T05:27:57;34.30;39.40
21085;DHT22;34247;50.064;19.970;2022-08-25T05:29:10;34.30;39.30
21085;DHT22;34247;50.064;19.970;2022-08-25T05:30:20;34.30;40.00
21085;DHT22;34247;50.064;19.970;2022-08-25T05:31:34;34.40;39.30
21085;DHT22;34247;50.064;19.970;2022-08-25T05:32:51;34.40;39.30
21085;DHT22;34247;50.064;19.970;2022-08-25T05:34:05;34.40;39.20
21085;DHT22;34247;50.064;19.970;2022-08-25T05:35:16;34.40;39.20
21085;DHT22;34247;50.064;19.970;2022-08-25T05:36:27;34.40;39.20
21085;DHT22;34247;50.064;19.970;2022-08-25T05:37:38;34.50;39.10
21085;DHT22;34247;50.064;19.970;2022-08-25T05:38:49;34.50;39.10
21085;DHT22;34247;50.064;19.970;2022-08-25T05:40:05;34.50;39.20
21085;DHT22;34247;50.064;19.970;2022-08-25T05:41:24;34.50;39.10
21085;DHT22;34247;50.064;19.970;2022-08-25T05:42:35;34.50;39.10
21085;DHT22;34247;50.064;19.970;2022-08-25T05:43:46;34.60;39.20
21085;DHT22;34247;50.064;19.970;2022-08-25T05:45:03;34.60;39.20
21085;DHT22;34247;50.064;19.970;2022-08-25T05:46:26;34.60;39.20
21085;DHT22;34247;50.064;19.970;2022-08-25T05:47:37;34.70;39.20
21085;DHT22;34247;50.064;19.970;2022-08-25T05:48:50;34.70;39.20
21085;DHT22;34247;50.064;19.970;2022-08-25T05:50:05;34.70;39.00
21085;DHT22;34247;50.064;19.970;2022-08-25T05:51:22;34.80;39.00
21085;DHT22;34247;50.064;19.970;2022-08-25T05:52:37;34.80;38.90
21085;DHT22;34247;50.064;19.970;2022-08-25T05:53:53;34.90;39.00
21085;DHT22;34247;50.064;19.970;2022-08-25T05:55:06;34.90;38.90
21085;DHT22;34247;50.064;19.970;2022-08-25T05:56:16;35.00;38.80
21085;DHT22;34247;50.064;19.970;2022-08-25T05:57:38;35.00;38.60
21085;DHT22;34247;50.064;19.970;2022-08-25T05:58:49;35.00;38.40
21085;DHT22;34247;50.064;19.970;2022-08-25T06:00:08;35.10;38.40
21085;DHT22;34247;50.064;19.970;2022-08-25T06:01:29;35.10;38.30
21085;DHT22;34247;50.064;19.970;2022-08-25T06:03:00;35.20;38.10
21085;DHT22;34247;50.064;19.970;2022-08-25T06:04:18;35.30;38.10
21085;DHT22;34247;50.064;19.970;2022-08-25T06:05:32;35.30;38.00
21085;DHT22;34247;50.064;19.970;2022-08-25T06:06:41;35.40;38.00
21085;DHT22;34247;50.064;19.970;2022-08-25T06:08:01;35.40;37.80
21085;DHT22;34247;50.064;19.970;2022-08-25T06:09:15;35.50;37.80
21085;DHT22;34247;50.064;19.970;2022-08-25T06:10:31;35.50;37.60
21085;DHT22;34247;50.064;19.970;2022-08-25T06:11:52;35.60;37.60
21085;DHT22;34247;50.064;19.970;2022-08-25T06:13:22;35.60;38.20
21085;DHT22;34247;50.064;19.970;2022-08-25T06:14:38;35.70;37.50
21085;DHT22;34247;50.064;19.970;2022-08-25T06:16:00;35.70;37.40
21085;DHT22;34247;50.064;19.970;2022-08-25T06:17:20;35.80;37.30
21085;DHT22;34247;50.064;19.970;2022-08-25T06:18:38;35.90;37.10
21085;DHT22;34247;50.064;19.970;2022-08-25T06:19:55;35.90;36.90
21085;DHT22;34247;50.064;19.970;2022-08-25T06:21:11;36.00;36.70
21085;DHT22;34247;50.064;19.970;2022-08-25T06:22:25;36.00;37.20
21085;DHT22;34247;50.064;19.970;2022-08-25T06:23:37;36.20;36.90
21085;DHT22;34247;50.064;19.970;2022-08-25T06:24:59;36.20;36.50
21085;DHT22;34247;50.064;19.970;2022-08-25T06:26:16;36.30;36.30
21085;DHT22;34247;50.064;19.970;2022-08-25T06:27:36;36.30;36.30
21085;DHT22;34247;50.064;19.970;2022-08-25T06:28:59;36.40;36.20
21085;DHT22;34247;50.064;19.970;2022-08-25T06:30:14;36.40;35.90
21085;DHT22;34247;50.064;19.970;2022-08-25T06:31:34;36.50;35.90
21085;DHT22;34247;50.064;19.970;2022-08-25T06:32:45;36.60;35.80
21085;DHT22;34247;50.064;19.970;2022-08-25T06:33:56;36.70;35.90
21085;DHT22;34247;50.064;19.970;2022-08-25T06:35:06;36.70;35.70
21085;DHT22;34247;50.064;19.970;2022-08-25T06:36:19;36.80;35.70
21085;DHT22;34247;50.064;19.970;2022-08-25T06:37:32;36.90;35.60
21085;DHT22;34247;50.064;19.970;2022-08-25T06:39:02;37.00;35.60
21085;DHT22;34247;50.064;19.970;2022-08-25T06:40:20;37.00;35.50
21085;DHT22;34247;50.064;19.970;2022-08-25T06:42:03;37.10;35.10
21085;DHT22;34247;50.064;19.970;2022-08-25T06:43:24;37.20;34.80
21085;DHT22;34247;50.064;19.970;2022-08-25T06:44:40;37.30;34.50
21085;DHT22;34247;50.064;19.970;2022-08-25T06:46:15;37.40;34.40
21085;DHT22;34247;50.064;19.970;2022-08-25T06:47:42;37.50;34.30
21085;DHT22;34247;50.064;19.970;2022-08-25T06:48:57;37.60;34.20
21085;DHT22;34247;50.064;19.970;2022-08-25T06:50:19;37.70;34.40
21085;DHT22;34247;50.064;19.970;2022-08-25T06:51:41;37.80;34.30
21085;DHT22;34247;50.064;19.970;2022-08-25T06:53:12;37.90;34.20
21085;DHT22;34247;50.064;19.970;2022-08-25T06:54:24;38.00;33.60
21085;DHT22;34247;50.064;19.970;2022-08-25T06:55:33;38.10;33.30
21085;DHT22;34247;50.064;19.970;2022-08-25T06:56:48;38.20;33.10
21085;DHT22;34247;50.064;19.970;2022-08-25T06:58:18;38.40;33.00
21085;DHT22;34247;50.064;19.970;2022-08-25T06:59:56;38.50;32.80
21085;DHT22;34247;50.064;19.970;2022-08-25T07:01:31;38.60;32.60
21085;DHT22;34247;50.064;19.970;2022-08-25T07:02:49;38.80;32.30
21085;DHT22;34247;50.064;19.970;2022-08-25T07:04:15;38.90;32.10
21085;DHT22;34247;50.064;19.970;2022-08-25T07:05:27;39.00;32.00
21085;DHT22;34247;50.064;19.970;2022-08-25T07:06:55;39.10;31.70
21085;DHT22;34247;50.064;19.970;2022-08-25T07:08:10;39.30;31.40
21085;DHT22;34247;50.064;19.970;2022-08-25T07:09:36;39.40;31.20
21085;DHT22;34247;50.064;19.970;2022-08-25T07:10:47;39.60;31.10
21085;DHT22;34247;50.064;19.970;2022-08-25T07:11:56;39.70;31.00
21085;DHT22;34247;50.064;19.970;2022-08-25T07:13:07;39.80;30.80
21085;DHT22;34247;50.064;19.970;2022-08-25T07:14:24;39.90;30.30
21085;DHT22;34247;50.064;19.970;2022-08-25T07:15:39;40.00;30.30
21085;DHT22;34247;50.064;19.970;2022-08-25T07:17:01;40.10;30.00
21085;DHT22;34247;50.064;19.970;2022-08-25T07:18:16;40.20;29.90
21085;DHT22;34247;50.064;19.970;2022-08-25T07:19:32;40.40;29.80
21085;DHT22;34247;50.064;19.970;2022-08-25T07:20:44;40.50;29.80
21085;DHT22;34247;50.064;19.970;2022-08-25T07:22:00;40.70;29.50
21085;DHT22;34247;50.064;19.970;2022-08-25T07:23:16;40.80;29.40
21085;DHT22;34247;50.064;19.970;2022-08-25T07:24:33;40.90;29.30
21085;DHT22;34247;50.064;19.970;2022-08-25T07:25:44;41.00;29.20
21085;DHT22;34247;50.064;19.970;2022-08-25T07:26:59;41.10;29.00
21085;DHT22;34247;50.064;19.970;2022-08-25T07:28:13;41.30;29.00
21085;DHT22;34247;50.064;19.970;2022-08-25T07:29:30;41.40;28.90
21085;DHT22;34247;50.064;19.970;2022-08-25T07:31:14;41.50;28.80
21085;DHT22;34247;50.064;19.970;2022-08-25T07:33:07;41.70;28.60
21085;DHT22;34247;50.064;19.970;2022-08-25T07:34:50;41.90;28.30
21085;DHT22;34247;50.064;19.970;2022-08-25T07:36:31;42.10;28.30
21085;DHT22;34247;50.064;19.970;2022-08-25T07:37:49;42.20;28.00
21085;DHT22;34247;50.064;19.970;2022-08-25T07:39:28;42.30;27.90
21085;DHT22;34247;50.064;19.970;2022-08-25T07:41:06;42.50;27.60
21085;DHT22;34247;50.064;19.970;2022-08-25T07:42:28;42.70;27.50
21085;DHT22;34247;50.064;19.970;2022-08-25T07:43:44;42.80;27.50
21085;DHT22;34247;50.064;19.970;2022-08-25T07:45:12;43.00;27.20
21085;DHT22;34247;50.064;19.970;2022-08-25T07:46:30;43.10;27.10
21085;DHT22;34247;50.064;19.970;2022-08-25T07:47:46;43.20;27.00
21085;DHT22;34247;50.064;19.970;2022-08-25T07:49:08;43.30;26.70
21085;DHT22;34247;50.064;19.970;2022-08-25T07:50:36;43.40;26.40
21085;DHT22;34247;50.064;19.970;2022-08-25T07:52:03;43.60;26.50
21085;DHT22;34247;50.064;19.970;2022-08-25T07:53:28;43.70;26.30
21085;DHT22;34247;50.064;19.970;2022-08-25T07:54:50;43.90;26.20
21085;DHT22;34247;50.064;19.970;2022-08-25T07:56:22;43.90;26.10
21085;DHT22;34247;50.064;19.970;2022-08-25T07:57:33;44.00;26.00